Latest Weather Observations for Mount Lofty

IDS60801

Issued at 11:01 pm CDT Wednesday 10 February 2016 (issued every 30 minutes, with the page automatically refreshed every 10 minutes)

About weather observations | Map of weather stations | Latest weather observations for SA | Other Formats
Station Details ID: 023842 Name: MOUNT LOFTY Lat: -34.98 Lon: 138.71 Height: 685.0 m
Data from the previous 72 hours. | See also: Recent months at Mount Lofty
Date/Time
CDT
Temp
°C
App
Temp
°C
Dew
Point
Rel
Hum
%
Delta-T
°C
Wind Press
QNH
hPa
Press
MSL
hPa
Rain
since 9 am
mm
Dir
 
Spd
km/h
Gust
km/h
Spd
kts
Gust
kts
10/11:00pm 12.8 9.7 8.9 77 2.0 ESE 15 22 8 12 - - 0.0
10/10:30pm 13.5 10.7 9.9 79 1.9 ESE 15 24 8 13 - - 0.0
10/10:00pm 13.8 11.0 10.0 78 2.0 ESE 15 26 8 14 - - 0.0
10/09:30pm 13.7 11.2 9.7 77 2.1 ESE 13 24 7 13 - - 0.0
10/09:00pm 13.9 11.5 10.1 78 2.0 ESE 13 20 7 11 - - 0.0
10/08:30pm 14.6 11.9 8.8 68 3.1 ESE 13 22 7 12 - - 0.0
10/08:00pm 15.6 12.9 9.1 65 3.5 ESE 13 20 7 11 - - 0.0
10/07:30pm 16.8 14.0 10.0 64 3.7 ESE 15 24 8 13 - - 0.0
10/07:00pm 17.7 15.1 10.8 64 3.8 ESE 15 22 8 12 - - 0.0
10/06:30pm 20.0 17.9 11.2 57 5.0 ESE 13 22 7 12 - - 0.0
10/06:00pm 21.4 19.1 10.6 50 6.1 ESE 13 22 7 12 - - 0.0
10/05:30pm 22.5 20.8 11.3 49 6.4 ESE 11 20 6 11 - - 0.0
10/05:00pm 24.0 23.0 12.3 48 6.9 ESE 9 15 5 8 - - 0.0
10/04:30pm 24.5 23.3 11.5 44 7.6 ESE 9 17 5 9 - - 0.0
10/04:00pm 24.4 23.2 11.7 45 7.4 ESE 9 19 5 10 - - 0.0
10/03:30pm 26.6 25.9 11.9 40 8.7 SE 7 17 4 9 - - 0.0
10/03:00pm 27.2 26.4 9.5 33 10.1 ESE 4 11 2 6 - - 0.0
10/02:30pm 25.9 24.5 9.7 36 9.2 E 7 11 4 6 - - 0.0
10/02:00pm 25.9 24.7 9.7 36 9.2 ESE 6 11 3 6 - - 0.0
10/01:30pm 24.8 23.0 7.9 34 9.3 ESE 7 11 4 6 - - 0.0
10/01:00pm 25.3 23.9 8.7 35 9.3 ESE 6 19 3 10 - - 0.0
10/12:30pm 24.0 22.0 8.8 38 8.4 SE 9 15 5 8 - - 0.0
10/12:00pm 23.6 21.6 8.8 39 8.2 ESE 9 15 5 8 - - 0.0
10/11:30am 22.9 21.4 10.7 46 7.0 ESE 9 17 5 9 - - 0.0
10/11:00am 21.7 19.4 7.5 40 7.6 ESE 9 17 5 9 - - 0.0
10/10:30am 22.0 19.0 4.1 31 9.0 ESE 9 15 5 8 - - 0.0
10/10:00am 22.3 19.2 3.4 29 9.4 E 9 15 5 8 - - 0.0
10/09:30am 21.5 18.2 2.2 28 9.3 ESE 9 15 5 8 - - 0.0
10/09:00am 20.3 16.6 -0.3 25 9.4 ESE 9 15 5 8 - - 0.0
10/08:30am 19.5 16.3 0.5 28 8.8 ESE 7 15 4 8 - - 0.0
10/08:00am 18.7 14.8 -1.7 25 8.9 ESE 9 13 5 7 - - 0.0
10/07:30am 17.6 14.3 -0.2 30 8.0 ESE 7 11 4 6 - - 0.0
10/07:00am 17.1 14.1 1.9 36 7.1 ESE 7 11 4 6 - - 0.0
10/06:30am 16.9 13.1 -0.8 30 7.8 ESE 9 13 5 7 - - 0.0
10/06:00am 17.1 13.2 -1.5 28 8.1 ESE 9 13 5 7 - - 0.0
10/05:30am 15.9 11.8 -3.0 27 7.9 ESE 9 13 5 7 - - 0.0
10/05:00am 15.7 11.8 -1.4 31 7.3 ESE 9 15 5 8 - - 0.0
10/04:30am 15.9 11.8 0.1 34 7.0 ESE 11 15 6 8 - - 0.0
10/04:00am 15.5 12.2 2.7 42 6.0 ESE 9 15 5 8 - - 0.0
10/03:30am 15.5 11.9 2.7 42 6.0 ESE 11 15 6 8 - - 0.0
10/03:00am 15.6 12.2 4.0 46 5.6 ESE 11 17 6 9 - - 0.0
10/02:30am 15.8 12.3 3.6 44 5.8 ESE 11 17 6 9 - - 0.0
10/02:00am 16.0 12.9 5.6 50 5.2 ESE 11 17 6 9 - - 0.0
10/01:30am 15.9 12.8 5.5 50 5.2 ESE 11 13 6 7 - - 0.0
10/01:00am 15.6 12.4 5.2 50 5.1 ESE 11 17 6 9 - - 0.0
10/12:30am 15.0 11.6 4.1 48 5.2 ESE 11 19 6 10 - - 0.0
10/12:00am 14.4 10.9 5.5 55 4.4 ESE 13 17 7 9 - - 0.0
 
Date/Time
CDT
Temp
°C
App
Temp
°C
Dew
Point
Rel
Hum
%
Delta-T
°C
Wind Press
QNH
hPa
Press
MSL
hPa
Rain
since 9 am
mm
Dir
 
Spd
km/h
Gust
km/h
Spd
kts
Gust
kts
09/11:30pm 14.9 12.0 6.5 57 4.2 ESE 11 17 6 9 - - 0.0
09/11:00pm 15.6 12.3 4.3 47 5.5 ESE 11 17 6 9 - - 0.0
09/10:30pm 16.2 12.5 4.6 46 5.7 ESE 13 20 7 11 - - 0.0
09/10:00pm 16.4 13.1 4.8 46 5.7 ESE 11 17 6 9 - - 0.0
09/09:30pm 16.6 14.9 11.3 71 3.0 ESE 11 17 6 9 - - 0.0
09/09:00pm 18.2 16.0 9.3 56 4.8 ESE 11 15 6 8 - - 0.0
09/08:30pm 18.8 16.8 8.7 52 5.4 ESE 9 13 5 7 - - 0.0
09/08:00pm 19.5 18.2 11.3 59 4.6 ESE 9 15 5 8 - - 0.0
09/07:30pm 20.6 19.5 12.1 58 4.9 ESE 9 15 5 8 - - 0.0
09/07:00pm 22.1 21.1 12.4 54 5.7 ESE 9 15 5 8 - - 0.0
09/06:30pm 23.3 22.0 12.6 51 6.3 ESE 11 15 6 8 - - 0.0
09/06:00pm 24.7 23.6 13.0 48 7.0 ESE 11 20 6 11 - - 0.0
09/05:30pm 25.9 25.4 13.7 47 7.4 ESE 9 17 5 9 - - 0.0
09/05:00pm 27.2 26.6 13.5 42 8.3 ESE 9 17 5 9 - - 0.0
09/04:30pm 27.5 27.2 12.7 40 8.9 SE 6 13 3 7 - - 0.0
09/04:00pm 29.4 27.3 6.7 24 12.5 WSW 7 13 4 7 - - 0.0
09/03:30pm 29.2 26.7 6.6 24 12.4 WNW 9 17 5 9 - - 0.0
09/03:00pm 28.8 27.1 7.4 26 11.9 W 6 15 3 8 - - 0.0
09/02:30pm 28.6 26.4 6.1 24 12.2 W 7 15 4 8 - - 0.0
09/02:00pm 28.8 28.0 9.5 30 11.1 N 4 7 2 4 - - 0.0
09/01:30pm 26.7 25.5 9.5 34 9.8 NW 6 11 3 6 - - 0.0
09/01:00pm 25.8 24.5 9.2 35 9.4 NE 6 13 3 7 - - 0.0
09/12:30pm 25.2 24.0 9.5 37 8.9 E 6 11 3 6 - - 0.0
09/12:00pm 23.7 23.1 11.7 47 7.0 ENE 6 9 3 5 - - 0.0
09/11:30am 23.5 22.8 11.9 48 6.8 ESE 7 15 4 8 - - 0.0
09/11:00am 23.1 22.2 11.2 47 6.8 E 7 17 4 9 - - 0.0
09/10:30am 22.0 21.0 11.1 50 6.2 ESE 7 17 4 9 - - 0.0
09/10:00am 21.4 20.4 10.9 51 6.0 ESE 7 15 4 8 - - 0.0
09/09:30am 20.3 19.4 11.5 57 5.0 E 7 13 4 7 - - 0.0
09/09:00am 19.0 18.2 11.8 63 4.1 ESE 7 15 4 8 - - 0.0
09/08:30am 17.6 16.5 10.5 63 3.9 ESE 7 13 4 7 - - 0.0
09/08:00am 15.4 14.2 10.2 71 2.8 ESE 7 15 4 8 - - 0.0
09/07:30am 14.2 12.5 9.8 75 2.4 ESE 9 19 5 10 - - 0.0
09/07:00am 13.2 11.4 9.5 78 2.0 ESE 9 11 5 6 - - 0.0
09/06:30am 12.4 10.6 9.6 83 1.5 ESE 9 15 5 8 - - 0.0
09/06:00am 12.0 10.3 9.9 87 1.1 ESE 9 17 5 9 - - 0.0
09/05:30am 11.9 9.9 10.3 90 0.9 ESE 11 17 6 9 - - 0.0
09/05:00am 11.7 9.8 10.6 93 0.6 ESE 11 20 6 11 - - 0.0
09/04:30am 11.7 9.2 11.1 96 0.3 ESE 15 24 8 13 - - 0.0
09/04:00am 11.8 9.3 11.2 96 0.3 ESE 15 22 8 12 - - 0.0
09/03:30am 11.9 9.5 11.3 96 0.3 ESE 15 20 8 11 - - 0.0
09/03:00am 12.0 9.6 11.4 96 0.3 ESE 15 20 8 11 - - 0.0
09/02:30am 12.3 10.0 11.7 96 0.3 ESE 15 24 8 13 - - 0.0
09/02:00am 12.3 10.0 11.7 96 0.3 ESE 15 26 8 14 - - 0.0
09/01:30am 12.4 10.1 11.8 96 0.3 ESE 15 24 8 13 - - 0.0
09/01:00am 12.3 10.0 11.7 96 0.3 ESE 15 26 8 14 - - 0.0
09/12:30am 12.3 10.0 11.8 97 0.3 ESE 15 24 8 13 - - 0.0
09/12:00am 12.5 10.3 12.0 97 0.3 ESE 15 24 8 13 - - 0.0
 
Date/Time
CDT
Temp
°C
App
Temp
°C
Dew
Point
Rel
Hum
%
Delta-T
°C
Wind Press
QNH
hPa
Press
MSL
hPa
Rain
since 9 am
mm
Dir
 
Spd
km/h
Gust
km/h
Spd
kts
Gust
kts
08/11:30pm 12.5 9.9 11.9 96 0.3 ESE 17 32 9 17 - - 0.0
08/11:00pm 12.5 10.2 11.9 96 0.3 ESE 15 28 8 15 - - 0.0
08/10:30pm 12.3 9.5 11.5 95 0.4 ESE 17 26 9 14 - - 0.0
08/10:00pm 12.2 9.4 11.3 94 0.5 ESE 17 26 9 14 - - 0.0
08/09:30pm 12.4 9.5 11.1 92 0.7 ESE 17 26 9 14 - - 0.0
08/09:00pm 12.9 10.0 11.0 88 1.0 ESE 17 30 9 16 - - 0.0
08/08:30pm 13.7 10.9 11.2 85 1.4 ESE 17 26 9 14 - - 0.0
08/08:00pm 14.7 11.9 11.5 81 1.8 ESE 17 28 9 15 - - 0.0
08/07:30pm 15.4 12.6 11.4 77 2.2 ESE 17 32 9 17 - - 0.0
08/07:00pm 16.4 13.9 10.9 70 3.0 ESE 15 24 8 13 - - 0.0
08/06:30pm 17.1 14.1 10.7 66 3.5 ESE 17 28 9 15 - - 0.0
08/06:00pm 18.0 15.1 10.9 63 4.0 ESE 17 30 9 16 - - 0.0
08/05:30pm 19.0 16.2 11.3 61 4.4 ESE 17 33 9 18 - - 0.0
08/05:00pm 20.0 17.9 11.2 57 5.0 ESE 13 26 7 14 - - 0.0
08/04:30pm 20.0 17.9 11.2 57 5.0 ESE 13 28 7 15 - - 0.0
08/04:00pm 20.7 18.6 11.3 55 5.4 ESE 13 24 7 13 - - 0.0
08/03:30pm 20.7 18.6 11.3 55 5.4 ESE 13 28 7 15 - - 0.0
08/03:00pm 21.3 19.5 12.2 56 5.3 ESE 13 24 7 13 - - 0.0
08/02:30pm 21.1 19.3 12.0 56 5.3 ESE 13 22 7 12 - - 0.0
08/02:00pm 20.5 18.2 11.7 57 5.0 ESE 15 20 8 11 - - 0.0
08/01:30pm 19.9 18.3 11.4 58 4.8 ESE 11 20 6 11 - - 0.0
08/01:00pm 20.8 19.4 13.5 63 4.3 ESE 13 24 7 13 - - 0.0
08/12:30pm 18.6 16.3 11.9 65 3.8 ESE 15 24 8 13 - - 0.0
08/12:00pm 18.6 16.6 12.8 69 3.4 ESE 15 26 8 14 - - 0.0
08/11:30am 17.9 16.1 13.2 74 2.7 ESE 15 32 8 17 - - 0.0
08/11:00am 17.0 14.6 12.7 76 2.5 ESE 17 26 9 14 - - 0.0
08/10:30am 15.6 13.5 12.4 81 1.8 ESE 15 24 8 13 - - 0.0
08/10:00am 14.1 11.5 12.0 87 1.2 ESE 17 26 9 14 - - 0.0
08/09:30am 13.7 11.4 11.9 89 1.0 ESE 15 22 8 12 - - 0.0
08/09:00am 13.5 11.8 12.4 93 0.6 ESE 13 20 7 11 - - 0.0
08/08:30am 12.2 9.8 11.4 95 0.4 ESE 15 24 8 13 - - 0.0
08/08:00am 12.2 10.2 11.6 96 0.3 E 13 20 7 11 - - 0.0
08/07:30am 11.8 9.4 11.3 97 0.3 ESE 15 24 8 13 - - 0.0
08/07:00am 11.5 8.6 10.9 96 0.3 ESE 17 26 9 14 - - 0.0
08/06:30am 11.4 8.8 10.8 96 0.3 ESE 15 24 8 13 - - 0.0
08/06:00am 11.4 8.8 10.8 96 0.3 ESE 15 22 8 12 - - 0.0
08/05:30am 11.4 8.4 10.8 96 0.3 ESE 17 24 9 13 - - 0.0
08/05:00am 11.6 8.1 11.0 96 0.3 ESE 20 28 11 15 - - 0.0
08/04:30am 11.6 8.1 11.0 96 0.3 ESE 20 28 11 15 - - 0.0
08/04:00am 11.7 8.5 11.1 96 0.3 ESE 19 32 10 17 - - 0.0
08/03:30am 11.9 8.7 11.3 96 0.3 ESE 19 28 10 15 - - 0.0
08/03:00am 12.0 9.2 11.4 96 0.3 ESE 17 28 9 15 - - 0.0
08/02:30am 12.0 8.8 11.2 95 0.4 ESE 19 28 10 15 - - 0.0
08/02:00am 12.1 8.9 11.3 95 0.4 ESE 19 28 10 15 - - 0.0
08/01:30am 12.4 9.3 11.6 95 0.4 ESE 19 28 10 15 - - 0.0
08/01:00am 12.6 9.6 11.8 95 0.4 ESE 19 28 10 15 - - 0.0
08/12:30am 12.8 10.2 12.0 95 0.4 ESE 17 28 9 15 - - 0.0
08/12:00am 12.9 10.3 12.0 94 0.5 ESE 17 28 9 15 - - 0.0
 
Date/Time
CDT
Temp
°C
App
Temp
°C
Dew
Point
Rel
Hum
%
Delta-T
°C
Wind Press
QNH
hPa
Press
MSL
hPa
Rain
since 9 am
mm
Dir
 
Spd
km/h
Gust
km/h
Spd
kts
Gust
kts
07/11:30pm 13.1 11.0 12.3 95 0.4 ESE 15 24 8 13 - - 0.0

Other Formats:

Comma delimited format used in spreadsheet applications
http://www.bom.gov.au/fwo/IDS60801/IDS60801.95678.axf

JavaScript Object Notation format (JSON) in row-major order
http://www.bom.gov.au/fwo/IDS60801/IDS60801.95678.json